Latest Weather Observations for Port Kembla Harbour

IDN60801

Issued at 10:13 pm EST Friday 8 May 2026 (issued every 10 minutes, with the page automatically refreshed every 10 minutes)

About weather observations | Map of weather stations | Latest weather observations for NSW | Other Formats
Station Details ID: 068253 Name: PORT KEMBLA NTC AWS Lat: -34.47 Lon: 150.91 Height: 0.0 m
Data from the previous 72 hours. | See also: Recent months for locations in New South Wales
Date/Time
EST
Temp
°C
App
Temp
°C
Dew
Point
°C
Rel
Hum
%
Delta-T
°C
Wind Press
QNH
hPa
Press
MSL
hPa
Rain since
9am
mm
Dir  Spd
km/h
Gust
km/h
Spd
kts
Gust
kts
08/10:00pm 16.3 - - - - WSW 13 19 7 10 1021.0 1021.0 -
08/09:30pm 16.3 - - - - WSW 17 24 9 13 1020.9 1020.9 -
08/09:00pm 16.4 - - - - WSW 20 32 11 17 1020.4 1020.4 -
08/08:30pm 16.4 - - - - WSW 22 37 12 20 1020.1 1020.1 -
08/08:00pm 16.3 - - - - W 26 39 14 21 1019.7 1019.7 -
08/07:30pm 16.4 - - - - W 28 41 15 22 1019.5 1019.5 -
08/07:00pm 16.5 - - - - W 24 32 13 17 1019.2 1019.2 -
08/06:30pm 16.7 - - - - W 28 37 15 20 1018.8 1018.8 -
08/06:00pm 16.9 - - - - W 24 35 13 19 1018.3 1018.3 -
08/05:30pm 17.2 - - - - W 24 33 13 18 1017.8 1017.8 -
08/05:00pm 17.6 - - - - W 30 39 16 21 1017.1 1017.1 -
08/04:30pm 18.2 - - - - W 28 43 15 23 1016.9 1016.9 -
08/04:00pm 18.5 - - - - W 32 43 17 23 1016.4 1016.4 -
08/03:30pm 19.3 - - - - W 26 46 14 25 1015.8 1015.8 -
08/03:00pm 19.3 - - - - W 26 43 14 23 1015.3 1015.3 -
08/02:30pm 19.7 - - - - W 28 43 15 23 1015.2 1015.2 -
08/02:06pm 20.0 - - - - W 28 46 15 25 1015.0 1015.0 -
08/02:00pm 19.5 - - - - W 32 46 17 25 1014.9 1014.9 -
08/01:30pm 19.3 - - - - WSW 32 46 17 25 1014.8 1014.8 -
08/01:00pm 19.4 - - - - W 35 57 19 31 1014.7 1014.7 -
08/12:58pm 19.4 - - - - W 35 54 19 29 1014.7 1014.7 -
08/12:30pm 18.8 - - - - W 37 50 20 27 1015.1 1015.1 -
08/12:00pm 18.3 - - - - W 30 44 16 24 1015.7 1015.7 -
08/11:40am 18.6 - - - - W 32 50 17 27 1015.9 1015.9 -
08/11:30am 18.2 - - - - W 32 44 17 24 1015.9 1015.9 -
08/11:00am 17.3 - - - - W 32 48 17 26 1016.2 1016.2 -
08/10:59am 17.4 - - - - W 30 48 16 26 1016.2 1016.2 -
08/10:30am 17.0 - - - - W 30 43 16 23 1016.3 1016.3 -
08/10:00am 16.1 - - - - W 35 44 19 24 1016.6 1016.6 -
08/09:30am 15.8 - - - - W 30 48 16 26 1016.7 1016.7 -
08/09:04am 15.1 - - - - W 30 50 16 27 1016.7 1016.7 -
08/09:00am 15.1 - - - - W 26 46 14 25 1016.6 1016.6 -
08/08:30am 14.3 - - - - W 32 46 17 25 1016.5 1016.5 -
08/08:07am 13.6 - - - - W 35 54 19 29 1016.3 1016.3 -
08/08:00am 13.6 - - - - W 33 46 18 25 1016.3 1016.3 -
08/07:30am 12.8 - - - - W 33 44 18 24 1015.9 1015.9 -
08/07:00am 12.3 - - - - W 33 44 18 24 1015.6 1015.6 -
08/06:30am 12.3 - - - - W 35 46 19 25 1015.6 1015.6 -
08/06:00am 12.2 - - - - W 35 50 19 27 1015.7 1015.7 -
08/05:30am 12.2 - - - - W 33 46 18 25 1015.8 1015.8 -
08/05:00am 12.1 - - - - W 28 43 15 23 1015.8 1015.8 -
08/04:30am 12.0 - - - - W 28 39 15 21 1016.1 1016.1 -
08/04:00am 12.1 - - - - W 32 44 17 24 1016.2 1016.2 -
08/03:50am 12.2 - - - - W 30 48 16 26 1016.2 1016.2 -
08/03:30am 12.0 - - - - W 24 37 13 20 1016.4 1016.4 -
08/03:00am 11.8 - - - - W 28 41 15 22 1016.8 1016.8 -
08/02:30am 11.7 - - - - W 24 33 13 18 1017.0 1017.0 -
08/02:00am 11.6 - - - - W 24 33 13 18 1017.1 1017.1 -
08/01:30am 11.5 - - - - W 24 33 13 18 1017.5 1017.5 -
08/01:13am 11.6 - - - - W 28 52 15 28 1017.7 1017.7 -
08/01:00am 11.4 - - - - W 28 39 15 21 1017.9 1017.9 -
08/12:30am 11.2 - - - - W 26 43 14 23 1018.1 1018.1 -
08/12:00am 11.5 - - - - W 22 33 12 18 1018.3 1018.3 -
 
Date/Time
EST
Temp
°C
App
Temp
°C
Dew
Point
°C
Rel
Hum
%
Delta-T
°C
Wind Press
QNH
hPa
Press
MSL
hPa
Rain since
9am
mm
Dir  Spd
km/h
Gust
km/h
Spd
kts
Gust
kts
07/11:30pm 11.7 - - - - W 20 32 11 17 1018.0 1018.0 -
07/11:00pm 11.8 - - - - W 24 39 13 21 1018.0 1018.0 -
07/10:30pm 11.7 - - - - WSW 28 43 15 23 1017.9 1017.9 -
07/10:00pm 12.0 - - - - WSW 26 35 14 19 1018.2 1018.2 -
07/09:30pm 12.2 - - - - W 32 50 17 27 1017.9 1017.9 -
07/09:22pm 12.5 - - - - WSW 32 50 17 27 1017.8 1017.8 -
07/09:00pm 12.3 - - - - WSW 28 39 15 21 1017.5 1017.5 -
07/08:30pm 12.2 - - - - WSW 37 54 20 29 1017.2 1017.2 -
07/08:16pm 12.3 - - - - W 39 57 21 31 1017.4 1017.4 -
07/08:00pm 12.4 - - - - W 39 54 21 29 1017.6 1017.6 -
07/07:30pm 12.7 - - - - W 33 50 18 27 1017.3 1017.3 -
07/07:00pm 12.7 - - - - W 35 54 19 29 1016.8 1016.8 -
07/06:50pm 13.0 - - - - W 33 54 18 29 1016.6 1016.6 -
07/06:30pm 13.1 - - - - W 37 52 20 28 1016.3 1016.3 -
07/06:07pm 13.4 - - - - W 32 50 17 27 1015.9 1015.9 -
07/06:00pm 13.4 - - - - W 30 46 16 25 1015.9 1015.9 -
07/05:37pm 13.7 - - - - W 30 50 16 27 1015.6 1015.6 -
07/05:30pm 13.7 - - - - W 30 41 16 22 1015.5 1015.5 -
07/05:17pm 14.0 - - - - W 30 48 16 26 1015.2 1015.2 -
07/05:00pm 14.3 - - - - W 30 44 16 24 1015.1 1015.1 -
07/04:30pm 14.6 - - - - W 32 43 17 23 1014.8 1014.8 -
07/04:00pm 15.0 - - - - WSW 30 46 16 25 1014.6 1014.6 -
07/03:33pm 15.2 - - - - W 33 56 18 30 1014.4 1014.4 -
07/03:30pm 15.2 - - - - W 32 48 17 26 1014.4 1014.4 -
07/03:08pm 15.4 - - - - W 30 54 16 29 1014.1 1014.1 -
07/03:00pm 15.8 - - - - WSW 33 46 18 25 1014.1 1014.1 -
07/02:32pm 15.4 - - - - W 33 57 18 31 1013.7 1013.7 -
07/02:30pm 15.5 - - - - W 33 52 18 28 1013.6 1013.6 -
07/02:00pm 15.4 - - - - W 35 48 19 26 1013.7 1013.7 -
07/01:30pm 15.5 - - - - W 32 50 17 27 1013.7 1013.7 -
07/01:06pm 15.1 - - - - WSW 33 52 18 28 1013.5 1013.5 -
07/01:00pm 15.6 - - - - WSW 35 50 19 27 1013.5 1013.5 -
07/12:43pm 15.4 - - - - W 32 50 17 27 1013.2 1013.2 -
07/12:30pm 15.7 - - - - W 35 48 19 26 1013.2 1013.2 -
07/12:16pm 16.2 - - - - W 33 52 18 28 1013.1 1013.1 -
07/12:00pm 15.4 - - - - W 43 59 23 32 1013.0 1013.0 -
07/11:32am 15.6 - - - - W 44 63 24 34 1013.3 1013.3 -
07/11:30am 15.7 - - - - W 46 65 25 35 1013.3 1013.3 -
07/11:00am 15.8 - - - - W 39 61 21 33 1013.4 1013.4 -
07/10:30am 15.7 - - - - W 39 57 21 31 1013.8 1013.8 -
07/10:02am 15.2 - - - - W 39 57 21 31 1013.9 1013.9 -
07/10:00am 15.3 - - - - W 39 56 21 30 1013.9 1013.9 -
07/09:30am 15.4 - - - - WSW 35 56 19 30 1013.8 1013.8 -
07/09:09am 16.7 - - - - W 28 48 15 26 1013.0 1013.0 -
07/09:00am 16.9 - - - - W 20 37 11 20 1013.1 1013.1 -
07/08:30am 16.3 - - - - WNW 19 26 10 14 1012.9 1012.9 -
07/08:00am 16.2 - - - - SW 4 13 2 7 1012.5 1012.5 -
07/07:30am 15.8 - - - - WSW 22 37 12 20 1012.6 1012.6 -
07/07:09am 15.8 - - - - W 30 54 16 29 1012.2 1012.2 -
07/07:00am 15.9 - - - - WNW 30 41 16 22 1012.0 1012.0 -
07/06:30am 15.9 - - - - W 33 43 18 23 1011.7 1011.7 -
07/06:00am 15.3 - - - - W 22 39 12 21 1011.6 1011.6 -
07/05:57am 15.5 - - - - W 17 39 9 21 1011.7 1011.7 -
07/05:30am 14.5 - - - - WSW 7 19 4 10 1012.0 1012.0 -
07/05:00am 14.2 - - - - W 6 9 3 5 1012.1 1012.1 -
07/04:30am 14.6 - - - - W 19 28 10 15 1012.2 1012.2 -
07/04:00am 14.3 - - - - W 17 26 9 14 1012.2 1012.2 -
07/03:30am 14.8 - - - - W 28 44 15 24 1011.9 1011.9 -
07/03:20am 15.0 - - - - W 28 50 15 27 1011.9 1011.9 -
07/03:00am 14.9 - - - - SE 6 17 3 9 1012.3 1012.3 -
07/02:30am 15.1 - - - - WSW 9 24 5 13 1012.5 1012.5 -
07/02:00am 15.1 - - - - SW 7 17 4 9 1013.0 1013.0 -
07/01:30am 15.6 - - - - SSW 9 24 5 13 1013.4 1013.4 -
07/01:00am 16.1 - - - - W 19 33 10 18 1013.5 1013.5 -
07/12:30am 16.7 - - - - W 15 24 8 13 1013.6 1013.6 -
07/12:00am 17.1 - - - - WNW 17 24 9 13 1013.8 1013.8 -
 
Date/Time
EST
Temp
°C
App
Temp
°C
Dew
Point
°C
Rel
Hum
%
Delta-T
°C
Wind Press
QNH
hPa
Press
MSL
hPa
Rain since
9am
mm
Dir  Spd
km/h
Gust
km/h
Spd
kts
Gust
kts
06/11:30pm 17.4 - - - - WNW 22 32 12 17 1014.0 1014.0 -
06/11:00pm 16.8 - - - - W 9 13 5 7 1014.0 1014.0 -
06/10:30pm 18.3 - - - - NW 19 24 10 13 1014.4 1014.4 -
06/10:00pm 17.8 - - - - NW 15 19 8 10 1014.8 1014.8 -
06/09:30pm 18.3 - - - - NW 19 26 10 14 1015.1 1015.1 -
06/09:00pm 17.3 - - - - W 7 11 4 6 1015.4 1015.4 -
06/08:30pm 17.7 - - - - W 11 17 6 9 1015.4 1015.4 -
06/08:00pm 18.8 - - - - NW 9 13 5 7 1015.3 1015.3 -
06/07:30pm 18.8 - - - - NNW 11 15 6 8 1015.4 1015.4 -
06/07:00pm 18.8 - - - - NNW 9 15 5 8 1015.5 1015.5 -
06/06:30pm 18.8 - - - - N 7 11 4 6 1015.5 1015.5 -
06/06:00pm 18.9 - - - - N 9 13 5 7 1015.5 1015.5 -
06/05:30pm 18.9 - - - - N 11 15 6 8 1015.4 1015.4 -
06/05:00pm 19.2 - - - - N 13 17 7 9 1015.3 1015.3 -
06/04:30pm 19.4 - - - - NNE 11 15 6 8 1015.5 1015.5 -
06/04:00pm 19.4 - - - - NNE 11 13 6 7 1015.7 1015.7 -
06/03:30pm 19.4 - - - - NNE 11 15 6 8 1015.9 1015.9 -
06/03:00pm 19.3 - - - - NE 9 15 5 8 1016.3 1016.3 -
06/02:30pm 19.3 - - - - NE 9 11 5 6 1016.5 1016.5 -
06/02:00pm 19.5 - - - - ENE 6 11 3 6 1016.8 1016.8 -
06/01:30pm 19.2 - - - - E 7 13 4 7 1017.2 1017.2 -
06/01:00pm 19.0 - - - - ESE 9 13 5 7 1017.7 1017.7 -
06/12:30pm 18.9 - - - - SE 11 17 6 9 1018.2 1018.2 -
06/12:00pm 18.7 - - - - SE 13 17 7 9 1018.8 1018.8 -
06/11:30am 18.9 - - - - SE 11 17 6 9 1019.3 1019.3 -
06/11:00am 18.7 - - - - SE 11 17 6 9 1019.8 1019.8 -
06/10:30am 18.5 - - - - SE 9 15 5 8 1020.0 1020.0 -
06/10:00am 18.4 - - - - ESE 9 13 5 7 1020.2 1020.2 -
06/09:30am 18.8 - - - - S 4 11 2 6 1020.1 1020.1 -
06/09:00am 18.6 - - - - SSW 2 4 1 2 1020.2 1020.2 -
06/08:30am 17.3 - - - - W 2 4 1 2 1020.3 1020.3 -
06/08:00am 16.1 - - - - WSW 7 11 4 6 1020.2 1020.2 -
06/07:30am 15.3 - - - - SW 2 6 1 3 1020.1 1020.1 -
06/07:00am 14.5 - - - - WSW 6 9 3 5 1019.8 1019.8 -
06/06:30am 14.3 - - - - WSW 7 9 4 5 1019.7 1019.7 -
06/06:00am 14.0 - - - - WSW 7 9 4 5 1019.6 1019.6 -
06/05:30am 14.4 - - - - WSW 6 9 3 5 1019.5 1019.5 -
06/05:00am 14.5 - - - - WSW 7 11 4 6 1019.6 1019.6 -
06/04:30am 14.4 - - - - WSW 6 9 3 5 1019.5 1019.5 -
06/04:00am 14.1 - - - - WSW 7 9 4 5 1019.4 1019.4 -
06/03:30am 14.1 - - - - W 7 9 4 5 1019.6 1019.6 -
06/03:00am 14.3 - - - - WSW 7 9 4 5 1019.6 1019.6 -
06/02:30am 14.9 - - - - WSW 7 9 4 5 1019.7 1019.7 -
06/02:00am 14.8 - - - - WSW 9 9 5 5 1019.9 1019.9 -
06/01:30am 15.2 - - - - W 9 13 5 7 1020.2 1020.2 -
06/01:00am 15.4 - - - - W 11 13 6 7 1020.4 1020.4 -
06/12:30am 15.3 - - - - W 9 13 5 7 1020.5 1020.5 -
06/12:00am 15.6 - - - - W 9 11 5 6 1020.7 1020.7 -
 
Date/Time
EST
Temp
°C
App
Temp
°C
Dew
Point
°C
Rel
Hum
%
Delta-T
°C
Wind Press
QNH
hPa
Press
MSL
hPa
Rain since
9am
mm
Dir  Spd
km/h
Gust
km/h
Spd
kts
Gust
kts
05/11:30pm 15.9 - - - - W 9 11 5 6 1020.7 1020.7 -
05/11:00pm 16.6 - - - - WSW 13 20 7 11 1020.6 1020.6 -
05/10:30pm 16.7 - - - - WSW 13 19 7 10 1020.9 1020.9 -

Other formats

Comma delimited format used in spreadsheet applications
http://www.bom.gov.au/fwo/IDN60801/IDN60801.95745.axf

JavaScript Object Notation format (JSON) in row-major order
http://www.bom.gov.au/fwo/IDN60801/IDN60801.95745.json

Data quality

Most of these data are generated automatically and are frequently updated. Quality checks on data are not normally performed. It is possible for incorrect values to appear. Refer to information at About Latest Weather Observations and please check the disclaimer before using these data.